KNSI

San Nicolas Island Nolf Airport

San Nicolas Island, California, USA
METAR KNSI 161656Z 14008KT 1/16SM FG VV002 14/14 A3014 RMK AO2 DZE54 SLP200 P0000 T01440144 $
Observed Flight Rules
Jan-16 @ 16:56 UTC (2 hours ago) Instrument Flight Rules
Wind Visibility Clouds Conditions
140° at 8 knots 6 miles
  • Vertical visibility at 200' AGL
  • Fog
Temperatures Readings Precipitation
Current 14°C / 57°F
Dewpoint 14°C / 57°F
Humidity 100%
Altimeter 30.14" Hg
Pressure 1020 hPa
Elevation 154
Current Rain 0.01
METAR KNSI 161656Z 14008KT 1/16SM FG VV002 14/14 A3014 RMK AO2 DZE54 SLP200 P0000 T01440144 $
Observed Flight Rules
Jan-16 @ 16:56 UTC
(2 hours ago)
LIFR
Wind Visibility
140° at 8 knots 6 miles
Clouds
  • Vertical visibility at 200' AGL
Conditions
  • Fog
Temperature Dewpoint
14°C / 57°F 14°C / 57°F
Humidity Altimeter Pressure
100% 30.14" Hg 1020 hPa
Current Rain
0.01